TimeCDT,TemperatureF,Dew PointF,Humidity,Sea Level PressureIn,VisibilityMPH,Wind Direction,Wind SpeedMPH,Gust SpeedMPH,PrecipitationIn,Events,Conditions,WindDirDegrees,DateUTC
12:53 AM,50.0,46.0,86,30.20,10.0,NNW,4.6,-,N/A,,Clear,330,2013-07-27 05:53:00
1:53 AM,48.9,46.0,90,30.21,10.0,NNW,5.8,-,N/A,,Partly Cloudy,340,2013-07-27 06:53:00
2:53 AM,46.9,44.1,90,30.21,10.0,NNW,6.9,-,N/A,,Clear,340,2013-07-27 07:53:00
3:53 AM,46.0,44.1,93,30.21,10.0,NNW,5.8,-,N/A,,Partly Cloudy,340,2013-07-27 08:53:00
4:53 AM,45.0,43.0,93,30.22,10.0,North,6.9,-,N/A,,Clear,350,2013-07-27 09:53:00
5:53 AM,44.1,42.1,93,30.22,10.0,NNW,5.8,-,N/A,,Clear,340,2013-07-27 10:53:00
6:53 AM,44.1,42.1,93,30.23,10.0,North,5.8,-,N/A,,Clear,350,2013-07-27 11:53:00
7:53 AM,48.9,45.0,86,30.22,10.0,NNW,6.9,-,N/A,,Clear,340,2013-07-27 12:53:00
8:53 AM,54.0,44.1,69,30.22,10.0,NNE,8.1,-,N/A,,Clear,20,2013-07-27 13:53:00
9:53 AM,60.1,43.0,53,30.20,10.0,NNE,8.1,-,N/A,,Clear,20,2013-07-27 14:53:00
10:53 AM,62.1,41.0,46,30.20,10.0,NNE,11.5,-,N/A,,Clear,30,2013-07-27 15:53:00
11:53 AM,64.0,41.0,43,30.18,10.0,NNW,10.4,17.3,N/A,,Partly Cloudy,340,2013-07-27 16:53:00
12:53 PM,66.0,42.1,42,30.16,10.0,North,9.2,-,N/A,,Mostly Cloudy,10,2013-07-27 17:53:00
1:53 PM,66.9,41.0,39,30.14,10.0,North,5.8,-,N/A,,Scattered Clouds,350,2013-07-27 18:53:00
2:53 PM,69.1,41.0,36,30.12,10.0,Variable,4.6,-,N/A,,Mostly Cloudy,0,2013-07-27 19:53:00
3:53 PM,68.0,42.1,39,30.10,10.0,NNW,9.2,-,N/A,,Partly Cloudy,340,2013-07-27 20:53:00
4:53 PM,70.0,43.0,38,30.09,10.0,NNW,8.1,23.0,N/A,,Partly Cloudy,340,2013-07-27 21:53:00
5:53 PM,69.1,43.0,39,30.07,10.0,NE,10.4,-,N/A,,Partly Cloudy,40,2013-07-27 22:53:00
6:53 PM,69.1,43.0,39,30.06,10.0,North,4.6,-,N/A,,Clear,10,2013-07-27 23:53:00
7:53 PM,66.9,43.0,42,30.06,10.0,NE,4.6,-,N/A,,Clear,40,2013-07-28 00:53:00
8:53 PM,62.1,46.9,58,30.06,10.0,NE,3.5,-,N/A,,Clear,40,2013-07-28 01:53:00
9:53 PM,55.9,46.0,69,30.08,10.0,Calm,Calm,-,N/A,,Clear,0,2013-07-28 02:53:00
10:53 PM,53.1,45.0,74,30.08,9.0,NE,4.6,-,N/A,,Clear,50,2013-07-28 03:53:00
11:53 PM,50.0,44.1,80,30.08,10.0,Calm,Calm,-,N/A,,Clear,0,2013-07-28 04:53:00